sensor_id;sensor_type;location;lat;lon;timestamp;P1;durP1;ratioP1;P2;durP2;ratioP2
36233;SDS011;43467;50.890;5.982;2023-08-01T00:00:39;1.92;;;0.50;;
36233;SDS011;43467;50.890;5.982;2023-08-01T00:03:05;1.77;;;0.45;;
36233;SDS011;43467;50.890;5.982;2023-08-01T00:05:31;2.35;;;0.70;;
36233;SDS011;43467;50.890;5.982;2023-08-01T00:07:56;1.67;;;0.50;;
36233;SDS011;43467;50.890;5.982;2023-08-01T00:10:22;1.55;;;0.80;;
36233;SDS011;43467;50.890;5.982;2023-08-01T00:12:47;1.23;;;0.70;;
36233;SDS011;43467;50.890;5.982;2023-08-01T00:15:13;2.28;;;0.57;;
36233;SDS011;43467;50.890;5.982;2023-08-01T00:17:39;4.05;;;1.50;;
36233;SDS011;43467;50.890;5.982;2023-08-01T00:20:05;0.80;;;0.50;;
36233;SDS011;43467;50.890;5.982;2023-08-01T00:22:32;3.47;;;0.75;;
36233;SDS011;43467;50.890;5.982;2023-08-01T00:24:57;0.52;;;0.40;;
36233;SDS011;43467;50.890;5.982;2023-08-01T00:27:23;1.73;;;0.63;;
36233;SDS011;43467;50.890;5.982;2023-08-01T00:29:49;0.80;;;0.60;;
36233;SDS011;43467;50.890;5.982;2023-08-01T00:32:15;0.80;;;0.40;;
36233;SDS011;43467;50.890;5.982;2023-08-01T00:34:40;0.55;;;0.47;;
36233;SDS011;43467;50.890;5.982;2023-08-01T00:37:06;0.45;;;0.45;;
36233;SDS011;43467;50.890;5.982;2023-08-01T00:39:31;1.58;;;0.60;;
36233;SDS011;43467;50.890;5.982;2023-08-01T00:41:57;0.52;;;0.50;;
36233;SDS011;43467;50.890;5.982;2023-08-01T00:44:23;1.17;;;0.50;;
36233;SDS011;43467;50.890;5.982;2023-08-01T00:46:49;0.50;;;0.40;;
36233;SDS011;43467;50.890;5.982;2023-08-01T00:49:15;0.50;;;0.43;;
36233;SDS011;43467;50.890;5.982;2023-08-01T00:51:40;1.38;;;0.50;;
36233;SDS011;43467;50.890;5.982;2023-08-01T00:54:08;0.75;;;0.60;;
36233;SDS011;43467;50.890;5.982;2023-08-01T00:56:34;0.82;;;0.70;;
36233;SDS011;43467;50.890;5.982;2023-08-01T00:59:00;0.93;;;0.60;;
36233;SDS011;43467;50.890;5.982;2023-08-01T01:01:26;1.55;;;0.70;;
36233;SDS011;43467;50.890;5.982;2023-08-01T01:03:54;1.38;;;0.60;;
36233;SDS011;43467;50.890;5.982;2023-08-01T01:06:20;1.20;;;0.80;;
36233;SDS011;43467;50.890;5.982;2023-08-01T01:08:50;2.30;;;0.60;;
36233;SDS011;43467;50.890;5.982;2023-08-01T01:11:16;1.98;;;0.80;;
36233;SDS011;43467;50.890;5.982;2023-08-01T01:13:42;0.60;;;0.60;;
36233;SDS011;43467;50.890;5.982;2023-08-01T01:16:07;1.92;;;0.73;;
36233;SDS011;43467;50.890;5.982;2023-08-01T01:18:33;1.23;;;0.70;;
36233;SDS011;43467;50.890;5.982;2023-08-01T01:20:59;0.77;;;0.57;;
36233;SDS011;43467;50.890;5.982;2023-08-01T01:23:24;1.40;;;0.75;;
36233;SDS011;43467;50.890;5.982;2023-08-01T01:25:52;3.60;;;0.65;;
36233;SDS011;43467;50.890;5.982;2023-08-01T01:28:19;2.25;;;0.90;;
36233;SDS011;43467;50.890;5.982;2023-08-01T01:30:45;1.83;;;0.80;;
36233;SDS011;43467;50.890;5.982;2023-08-01T01:33:11;0.80;;;0.80;;
36233;SDS011;43467;50.890;5.982;2023-08-01T01:35:37;3.53;;;1.38;;
36233;SDS011;43467;50.890;5.982;2023-08-01T01:38:03;1.05;;;0.70;;
36233;SDS011;43467;50.890;5.982;2023-08-01T01:40:30;3.25;;;0.93;;
36233;SDS011;43467;50.890;5.982;2023-08-01T01:42:57;1.23;;;0.82;;
36233;SDS011;43467;50.890;5.982;2023-08-01T01:45:22;1.50;;;0.80;;
36233;SDS011;43467;50.890;5.982;2023-08-01T01:47:48;2.28;;;0.80;;
36233;SDS011;43467;50.890;5.982;2023-08-01T01:50:13;3.08;;;1.00;;
36233;SDS011;43467;50.890;5.982;2023-08-01T01:52:39;1.40;;;0.98;;
36233;SDS011;43467;50.890;5.982;2023-08-01T01:55:05;1.77;;;1.10;;
36233;SDS011;43467;50.890;5.982;2023-08-01T01:57:30;3.15;;;1.02;;
36233;SDS011;43467;50.890;5.982;2023-08-01T01:59:56;2.40;;;1.00;;
36233;SDS011;43467;50.890;5.982;2023-08-01T02:02:22;3.80;;;1.33;;
36233;SDS011;43467;50.890;5.982;2023-08-01T02:04:49;2.13;;;1.50;;
36233;SDS011;43467;50.890;5.982;2023-08-01T02:07:15;2.63;;;1.40;;
36233;SDS011;43467;50.890;5.982;2023-08-01T02:09:41;2.38;;;1.40;;
36233;SDS011;43467;50.890;5.982;2023-08-01T02:12:07;2.45;;;1.58;;
36233;SDS011;43467;50.890;5.982;2023-08-01T02:14:35;2.17;;;1.50;;
36233;SDS011;43467;50.890;5.982;2023-08-01T02:17:01;2.80;;;1.77;;
36233;SDS011;43467;50.890;5.982;2023-08-01T02:19:27;2.15;;;1.30;;
36233;SDS011;43467;50.890;5.982;2023-08-01T02:21:53;2.50;;;1.50;;
36233;SDS011;43467;50.890;5.982;2023-08-01T02:24:19;2.30;;;1.80;;
36233;SDS011;43467;50.890;5.982;2023-08-01T02:26:44;2.65;;;2.30;;
36233;SDS011;43467;50.890;5.982;2023-08-01T02:29:10;2.50;;;1.92;;
36233;SDS011;43467;50.890;5.982;2023-08-01T02:31:36;2.60;;;2.10;;
36233;SDS011;43467;50.890;5.982;2023-08-01T02:34:04;5.07;;;2.30;;
36233;SDS011;43467;50.890;5.982;2023-08-01T02:36:30;7.25;;;2.80;;
36233;SDS011;43467;50.890;5.982;2023-08-01T02:38:56;5.70;;;2.85;;
36233;SDS011;43467;50.890;5.982;2023-08-01T02:41:21;3.88;;;2.88;;
36233;SDS011;43467;50.890;5.982;2023-08-01T02:43:47;8.40;;;3.15;;
36233;SDS011;43467;50.890;5.982;2023-08-01T02:46:12;5.45;;;3.30;;
36233;SDS011;43467;50.890;5.982;2023-08-01T02:48:38;4.72;;;3.42;;
36233;SDS011;43467;50.890;5.982;2023-08-01T02:51:03;5.85;;;3.63;;
36233;SDS011;43467;50.890;5.982;2023-08-01T02:53:29;6.55;;;4.05;;
36233;SDS011;43467;50.890;5.982;2023-08-01T02:55:54;5.13;;;3.50;;
36233;SDS011;43467;50.890;5.982;2023-08-01T02:58:19;7.32;;;4.13;;
36233;SDS011;43467;50.890;5.982;2023-08-01T03:00:45;8.32;;;4.53;;
36233;SDS011;43467;50.890;5.982;2023-08-01T03:03:12;9.75;;;4.20;;
36233;SDS011;43467;50.890;5.982;2023-08-01T03:05:38;7.85;;;4.18;;
36233;SDS011;43467;50.890;5.982;2023-08-01T03:08:04;9.05;;;4.40;;
36233;SDS011;43467;50.890;5.982;2023-08-01T03:10:30;8.30;;;3.55;;
36233;SDS011;43467;50.890;5.982;2023-08-01T03:12:55;7.20;;;4.15;;
36233;SDS011;43467;50.890;5.982;2023-08-01T03:15:21;5.15;;;3.83;;
36233;SDS011;43467;50.890;5.982;2023-08-01T03:17:47;5.28;;;4.13;;
36233;SDS011;43467;50.890;5.982;2023-08-01T03:20:13;7.55;;;4.15;;
36233;SDS011;43467;50.890;5.982;2023-08-01T03:22:39;7.57;;;4.53;;
36233;SDS011;43467;50.890;5.982;2023-08-01T03:25:05;8.82;;;4.63;;
36233;SDS011;43467;50.890;5.982;2023-08-01T03:27:34;7.53;;;4.28;;
36233;SDS011;43467;50.890;5.982;2023-08-01T03:30:00;6.95;;;4.60;;
36233;SDS011;43467;50.890;5.982;2023-08-01T03:32:26;5.68;;;4.13;;
36233;SDS011;43467;50.890;5.982;2023-08-01T03:34:52;10.43;;;5.07;;
36233;SDS011;43467;50.890;5.982;2023-08-01T03:37:17;10.95;;;5.30;;
36233;SDS011;43467;50.890;5.982;2023-08-01T03:39:43;6.57;;;3.78;;
36233;SDS011;43467;50.890;5.982;2023-08-01T03:42:09;12.85;;;5.13;;
36233;SDS011;43467;50.890;5.982;2023-08-01T03:44:35;6.95;;;4.40;;
36233;SDS011;43467;50.890;5.982;2023-08-01T03:47:01;11.38;;;4.72;;
36233;SDS011;43467;50.890;5.982;2023-08-01T03:49:27;13.77;;;5.00;;
36233;SDS011;43467;50.890;5.982;2023-08-01T03:51:52;10.57;;;5.10;;
36233;SDS011;43467;50.890;5.982;2023-08-01T03:54:18;7.72;;;4.78;;
36233;SDS011;43467;50.890;5.982;2023-08-01T03:56:44;8.95;;;5.50;;
36233;SDS011;43467;50.890;5.982;2023-08-01T03:59:11;7.80;;;4.32;;
36233;SDS011;43467;50.890;5.982;2023-08-01T04:01:38;8.35;;;5.00;;
36233;SDS011;43467;50.890;5.982;2023-08-01T04:04:03;8.57;;;4.68;;
36233;SDS011;43467;50.890;5.982;2023-08-01T04:06:29;10.07;;;4.53;;
36233;SDS011;43467;50.890;5.982;2023-08-01T04:08:56;9.20;;;4.43;;
36233;SDS011;43467;50.890;5.982;2023-08-01T04:11:22;8.50;;;4.60;;
36233;SDS011;43467;50.890;5.982;2023-08-01T04:13:47;7.57;;;3.97;;
36233;SDS011;43467;50.890;5.982;2023-08-01T04:16:13;6.35;;;4.18;;
36233;SDS011;43467;50.890;5.982;2023-08-01T04:18:39;9.07;;;4.20;;
36233;SDS011;43467;50.890;5.982;2023-08-01T04:21:05;7.47;;;4.07;;
36233;SDS011;43467;50.890;5.982;2023-08-01T04:23:33;11.50;;;4.63;;
36233;SDS011;43467;50.890;5.982;2023-08-01T04:25:58;9.43;;;4.78;;
36233;SDS011;43467;50.890;5.982;2023-08-01T04:28:24;11.02;;;4.80;;
36233;SDS011;43467;50.890;5.982;2023-08-01T04:30:51;10.70;;;4.45;;
36233;SDS011;43467;50.890;5.982;2023-08-01T04:33:17;11.38;;;5.32;;
36233;SDS011;43467;50.890;5.982;2023-08-01T04:35:43;9.32;;;5.03;;
36233;SDS011;43467;50.890;5.982;2023-08-01T04:38:09;12.70;;;4.80;;
36233;SDS011;43467;50.890;5.982;2023-08-01T04:40:35;11.25;;;4.68;;
36233;SDS011;43467;50.890;5.982;2023-08-01T04:43:01;10.23;;;4.78;;
36233;SDS011;43467;50.890;5.982;2023-08-01T04:45:27;9.00;;;4.95;;
36233;SDS011;43467;50.890;5.982;2023-08-01T04:47:53;9.50;;;4.63;;
36233;SDS011;43467;50.890;5.982;2023-08-01T04:50:18;8.50;;;4.90;;
36233;SDS011;43467;50.890;5.982;2023-08-01T04:52:44;12.10;;;5.32;;
36233;SDS011;43467;50.890;5.982;2023-08-01T04:55:10;10.23;;;4.82;;
36233;SDS011;43467;50.890;5.982;2023-08-01T04:57:35;8.68;;;4.55;;
36233;SDS011;43467;50.890;5.982;2023-08-01T05:00:01;10.48;;;4.60;;
36233;SDS011;43467;50.890;5.982;2023-08-01T05:02:28;13.60;;;4.90;;
36233;SDS011;43467;50.890;5.982;2023-08-01T05:04:53;12.93;;;5.30;;
36233;SDS011;43467;50.890;5.982;2023-08-01T05:07:19;9.25;;;4.60;;
36233;SDS011;43467;50.890;5.982;2023-08-01T05:09:44;11.63;;;5.70;;
36233;SDS011;43467;50.890;5.982;2023-08-01T05:12:10;11.57;;;4.72;;
36233;SDS011;43467;50.890;5.982;2023-08-01T05:14:35;8.27;;;4.88;;
36233;SDS011;43467;50.890;5.982;2023-08-01T05:17:01;11.10;;;5.15;;
36233;SDS011;43467;50.890;5.982;2023-08-01T05:19:27;10.93;;;4.82;;
36233;SDS011;43467;50.890;5.982;2023-08-01T05:21:52;13.68;;;5.65;;
36233;SDS011;43467;50.890;5.982;2023-08-01T05:24:18;10.75;;;5.32;;
36233;SDS011;43467;50.890;5.982;2023-08-01T05:26:43;10.27;;;5.82;;
36233;SDS011;43467;50.890;5.982;2023-08-01T05:29:09;10.82;;;4.80;;
36233;SDS011;43467;50.890;5.982;2023-08-01T05:31:34;15.82;;;4.82;;
36233;SDS011;43467;50.890;5.982;2023-08-01T05:34:00;11.90;;;6.00;;
36233;SDS011;43467;50.890;5.982;2023-08-01T05:36:25;10.73;;;4.75;;
36233;SDS011;43467;50.890;5.982;2023-08-01T05:38:51;11.05;;;5.47;;
36233;SDS011;43467;50.890;5.982;2023-08-01T05:41:17;8.30;;;5.15;;
36233;SDS011;43467;50.890;5.982;2023-08-01T05:43:42;8.35;;;5.07;;
36233;SDS011;43467;50.890;5.982;2023-08-01T05:46:09;12.65;;;5.57;;
36233;SDS011;43467;50.890;5.982;2023-08-01T05:48:35;14.63;;;5.97;;
36233;SDS011;43467;50.890;5.982;2023-08-01T05:51:01;10.55;;;6.20;;
36233;SDS011;43467;50.890;5.982;2023-08-01T05:53:26;14.73;;;6.72;;
36233;SDS011;43467;50.890;5.982;2023-08-01T05:55:53;16.67;;;6.97;;
36233;SDS011;43467;50.890;5.982;2023-08-01T05:58:19;12.25;;;6.72;;
36233;SDS011;43467;50.890;5.982;2023-08-01T06:00:44;16.42;;;7.10;;
36233;SDS011;43467;50.890;5.982;2023-08-01T06:03:10;12.15;;;6.32;;
36233;SDS011;43467;50.890;5.982;2023-08-01T06:05:36;14.27;;;6.25;;
36233;SDS011;43467;50.890;5.982;2023-08-01T06:08:02;9.27;;;5.57;;
36233;SDS011;43467;50.890;5.982;2023-08-01T06:10:28;11.73;;;5.35;;
36233;SDS011;43467;50.890;5.982;2023-08-01T06:12:54;13.80;;;5.57;;
36233;SDS011;43467;50.890;5.982;2023-08-01T06:15:20;9.00;;;5.20;;
36233;SDS011;43467;50.890;5.982;2023-08-01T06:17:46;12.80;;;4.97;;
36233;SDS011;43467;50.890;5.982;2023-08-01T06:20:12;12.02;;;6.18;;
36233;SDS011;43467;50.890;5.982;2023-08-01T06:22:38;11.88;;;5.40;;
36233;SDS011;43467;50.890;5.982;2023-08-01T06:25:04;10.68;;;5.22;;
36233;SDS011;43467;50.890;5.982;2023-08-01T06:27:30;12.90;;;5.75;;
36233;SDS011;43467;50.890;5.982;2023-08-01T06:29:55;11.77;;;6.40;;
36233;SDS011;43467;50.890;5.982;2023-08-01T06:32:21;17.70;;;6.30;;
36233;SDS011;43467;50.890;5.982;2023-08-01T06:34:46;15.70;;;5.65;;
36233;SDS011;43467;50.890;5.982;2023-08-01T06:37:12;15.18;;;6.45;;
36233;SDS011;43467;50.890;5.982;2023-08-01T06:39:37;15.68;;;6.15;;
36233;SDS011;43467;50.890;5.982;2023-08-01T06:42:03;16.50;;;6.45;;
36233;SDS011;43467;50.890;5.982;2023-08-01T06:44:29;14.48;;;6.80;;
36233;SDS011;43467;50.890;5.982;2023-08-01T06:46:54;19.38;;;7.53;;
36233;SDS011;43467;50.890;5.982;2023-08-01T06:49:20;14.10;;;6.78;;
36233;SDS011;43467;50.890;5.982;2023-08-01T06:51:46;11.13;;;7.07;;
36233;SDS011;43467;50.890;5.982;2023-08-01T06:54:11;13.27;;;7.45;;
36233;SDS011;43467;50.890;5.982;2023-08-01T06:56:37;16.25;;;7.75;;
36233;SDS011;43467;50.890;5.982;2023-08-01T06:59:02;18.90;;;7.50;;
36233;SDS011;43467;50.890;5.982;2023-08-01T07:01:28;16.77;;;8.05;;
36233;SDS011;43467;50.890;5.982;2023-08-01T07:03:53;16.10;;;7.22;;
36233;SDS011;43467;50.890;5.982;2023-08-01T07:06:20;15.10;;;8.30;;
36233;SDS011;43467;50.890;5.982;2023-08-01T07:08:46;14.90;;;7.05;;
36233;SDS011;43467;50.890;5.982;2023-08-01T07:11:11;13.88;;;7.43;;
36233;SDS011;43467;50.890;5.982;2023-08-01T07:13:37;15.75;;;7.47;;
36233;SDS011;43467;50.890;5.982;2023-08-01T07:16:03;16.98;;;8.20;;
36233;SDS011;43467;50.890;5.982;2023-08-01T07:18:28;13.88;;;6.97;;
36233;SDS011;43467;50.890;5.982;2023-08-01T07:21:01;15.55;;;6.85;;
36233;SDS011;43467;50.890;5.982;2023-08-01T07:23:27;17.73;;;8.15;;
36233;SDS011;43467;50.890;5.982;2023-08-01T07:25:53;12.73;;;6.32;;
36233;SDS011;43467;50.890;5.982;2023-08-01T07:28:19;17.52;;;7.32;;
36233;SDS011;43467;50.890;5.982;2023-08-01T07:30:45;14.20;;;6.47;;
36233;SDS011;43467;50.890;5.982;2023-08-01T07:33:11;13.80;;;7.00;;
36233;SDS011;43467;50.890;5.982;2023-08-01T07:35:36;17.00;;;6.85;;
36233;SDS011;43467;50.890;5.982;2023-08-01T07:38:02;10.70;;;6.03;;
36233;SDS011;43467;50.890;5.982;2023-08-01T07:40:28;21.90;;;7.75;;
36233;SDS011;43467;50.890;5.982;2023-08-01T07:42:53;15.00;;;6.32;;
36233;SDS011;43467;50.890;5.982;2023-08-01T07:45:24;14.77;;;6.03;;
36233;SDS011;43467;50.890;5.982;2023-08-01T07:47:50;14.25;;;5.95;;
36233;SDS011;43467;50.890;5.982;2023-08-01T07:50:15;11.90;;;5.28;;
36233;SDS011;43467;50.890;5.982;2023-08-01T07:52:41;14.60;;;5.55;;
36233;SDS011;43467;50.890;5.982;2023-08-01T07:55:07;18.58;;;5.90;;
36233;SDS011;43467;50.890;5.982;2023-08-01T07:57:33;15.48;;;5.55;;
36233;SDS011;43467;50.890;5.982;2023-08-01T07:59:58;13.98;;;6.32;;
36233;SDS011;43467;50.890;5.982;2023-08-01T08:02:24;14.30;;;5.28;;
36233;SDS011;43467;50.890;5.982;2023-08-01T08:04:49;15.25;;;6.13;;
36233;SDS011;43467;50.890;5.982;2023-08-01T08:07:15;12.00;;;5.68;;
36233;SDS011;43467;50.890;5.982;2023-08-01T08:09:41;12.82;;;5.82;;
36233;SDS011;43467;50.890;5.982;2023-08-01T08:12:07;10.50;;;5.88;;
36233;SDS011;43467;50.890;5.982;2023-08-01T08:14:33;14.60;;;6.07;;
36233;SDS011;43467;50.890;5.982;2023-08-01T08:16:59;12.88;;;5.75;;
36233;SDS011;43467;50.890;5.982;2023-08-01T08:19:25;14.13;;;5.43;;
36233;SDS011;43467;50.890;5.982;2023-08-01T08:21:51;14.48;;;5.68;;
36233;SDS011;43467;50.890;5.982;2023-08-01T08:24:16;12.93;;;5.35;;
36233;SDS011;43467;50.890;5.982;2023-08-01T08:26:42;11.75;;;5.63;;
36233;SDS011;43467;50.890;5.982;2023-08-01T08:29:08;11.05;;;5.45;;
36233;SDS011;43467;50.890;5.982;2023-08-01T08:31:37;9.77;;;5.07;;
36233;SDS011;43467;50.890;5.982;2023-08-01T08:34:02;11.18;;;5.55;;
36233;SDS011;43467;50.890;5.982;2023-08-01T08:36:28;10.88;;;5.50;;
36233;SDS011;43467;50.890;5.982;2023-08-01T08:38:54;14.07;;;5.15;;
36233;SDS011;43467;50.890;5.982;2023-08-01T08:41:20;12.02;;;5.20;;
36233;SDS011;43467;50.890;5.982;2023-08-01T08:43:49;9.23;;;5.32;;
36233;SDS011;43467;50.890;5.982;2023-08-01T08:46:16;15.38;;;4.95;;
36233;SDS011;43467;50.890;5.982;2023-08-01T08:48:42;11.93;;;5.60;;
36233;SDS011;43467;50.890;5.982;2023-08-01T08:51:09;10.25;;;5.00;;
36233;SDS011;43467;50.890;5.982;2023-08-01T08:53:37;9.68;;;4.63;;
36233;SDS011;43467;50.890;5.982;2023-08-01T08:56:03;10.60;;;4.88;;
36233;SDS011;43467;50.890;5.982;2023-08-01T08:58:30;15.50;;;5.88;;
36233;SDS011;43467;50.890;5.982;2023-08-01T09:00:56;12.43;;;6.05;;
36233;SDS011;43467;50.890;5.982;2023-08-01T09:03:23;12.88;;;4.97;;
36233;SDS011;43467;50.890;5.982;2023-08-01T09:05:54;9.80;;;5.55;;
36233;SDS011;43467;50.890;5.982;2023-08-01T09:08:25;13.98;;;6.13;;
36233;SDS011;43467;50.890;5.982;2023-08-01T09:10:54;11.35;;;5.35;;
36233;SDS011;43467;50.890;5.982;2023-08-01T09:13:20;11.27;;;5.25;;
36233;SDS011;43467;50.890;5.982;2023-08-01T09:15:46;11.68;;;4.78;;
36233;SDS011;43467;50.890;5.982;2023-08-01T09:18:13;10.82;;;5.22;;
36233;SDS011;43467;50.890;5.982;2023-08-01T09:20:39;7.40;;;4.82;;
36233;SDS011;43467;50.890;5.982;2023-08-01T09:23:09;10.32;;;5.57;;
36233;SDS011;43467;50.890;5.982;2023-08-01T09:25:36;14.52;;;5.15;;
36233;SDS011;43467;50.890;5.982;2023-08-01T09:28:02;8.85;;;4.28;;
36233;SDS011;43467;50.890;5.982;2023-08-01T09:30:28;13.35;;;4.60;;
36233;SDS011;43467;50.890;5.982;2023-08-01T09:32:54;11.05;;;5.25;;
36233;SDS011;43467;50.890;5.982;2023-08-01T09:35:21;10.07;;;4.70;;
36233;SDS011;43467;50.890;5.982;2023-08-01T09:37:47;10.15;;;4.55;;
36233;SDS011;43467;50.890;5.982;2023-08-01T09:40:13;8.88;;;4.20;;
36233;SDS011;43467;50.890;5.982;2023-08-01T09:42:40;9.40;;;4.40;;
36233;SDS011;43467;50.890;5.982;2023-08-01T09:45:16;11.85;;;4.32;;
36233;SDS011;43467;50.890;5.982;2023-08-01T09:47:43;13.02;;;4.82;;
36233;SDS011;43467;50.890;5.982;2023-08-01T09:50:10;7.45;;;3.35;;
36233;SDS011;43467;50.890;5.982;2023-08-01T09:52:38;7.65;;;3.40;;
36233;SDS011;43467;50.890;5.982;2023-08-01T09:55:04;8.50;;;4.22;;
36233;SDS011;43467;50.890;5.982;2023-08-01T09:57:30;7.53;;;3.67;;
36233;SDS011;43467;50.890;5.982;2023-08-01T09:59:57;14.43;;;3.92;;
36233;SDS011;43467;50.890;5.982;2023-08-01T10:02:27;9.55;;;3.72;;
36233;SDS011;43467;50.890;5.982;2023-08-01T10:04:57;12.85;;;4.85;;
36233;SDS011;43467;50.890;5.982;2023-08-01T10:07:25;10.77;;;4.32;;
36233;SDS011;43467;50.890;5.982;2023-08-01T10:09:54;8.48;;;3.67;;
36233;SDS011;43467;50.890;5.982;2023-08-01T10:12:23;8.55;;;3.90;;
36233;SDS011;43467;50.890;5.982;2023-08-01T10:14:52;7.70;;;3.40;;
36233;SDS011;43467;50.890;5.982;2023-08-01T10:17:19;9.32;;;3.47;;
36233;SDS011;43467;50.890;5.982;2023-08-01T10:19:48;10.20;;;3.80;;
36233;SDS011;43467;50.890;5.982;2023-08-01T10:22:15;11.63;;;3.90;;
36233;SDS011;43467;50.890;5.982;2023-08-01T10:24:41;7.07;;;3.08;;
36233;SDS011;43467;50.890;5.982;2023-08-01T10:27:18;10.32;;;3.40;;
36233;SDS011;43467;50.890;5.982;2023-08-01T10:29:45;7.35;;;3.88;;
36233;SDS011;43467;50.890;5.982;2023-08-01T10:32:27;10.77;;;3.85;;
36233;SDS011;43467;50.890;5.982;2023-08-01T10:34:55;9.07;;;3.47;;
36233;SDS011;43467;50.890;5.982;2023-08-01T10:37:21;6.93;;;3.28;;
36233;SDS011;43467;50.890;5.982;2023-08-01T10:39:55;10.00;;;3.70;;
36233;SDS011;43467;50.890;5.982;2023-08-01T10:42:24;10.02;;;3.30;;
36233;SDS011;43467;50.890;5.982;2023-08-01T10:44:50;8.65;;;3.78;;
36233;SDS011;43467;50.890;5.982;2023-08-01T10:47:24;8.60;;;3.10;;
36233;SDS011;43467;50.890;5.982;2023-08-01T10:49:52;7.22;;;3.25;;
36233;SDS011;43467;50.890;5.982;2023-08-01T10:54:59;13.35;;;3.47;;
36233;SDS011;43467;50.890;5.982;2023-08-01T10:57:35;7.80;;;3.58;;
36233;SDS011;43467;50.890;5.982;2023-08-01T11:00:04;11.77;;;3.40;;
36233;SDS011;43467;50.890;5.982;2023-08-01T11:02:34;7.50;;;3.50;;
36233;SDS011;43467;50.890;5.982;2023-08-01T11:05:01;9.07;;;3.25;;
36233;SDS011;43467;50.890;5.982;2023-08-01T11:07:32;6.53;;;2.90;;
36233;SDS011;43467;50.890;5.982;2023-08-01T11:10:11;5.40;;;2.95;;
36233;SDS011;43467;50.890;5.982;2023-08-01T11:12:39;14.13;;;3.00;;
36233;SDS011;43467;50.890;5.982;2023-08-01T11:15:07;9.38;;;2.80;;
36233;SDS011;43467;50.890;5.982;2023-08-01T11:17:38;7.53;;;2.45;;
36233;SDS011;43467;50.890;5.982;2023-08-01T11:20:05;8.75;;;3.42;;
36233;SDS011;43467;50.890;5.982;2023-08-01T11:22:35;9.48;;;2.92;;
36233;SDS011;43467;50.890;5.982;2023-08-01T11:25:02;6.47;;;2.85;;
36233;SDS011;43467;50.890;5.982;2023-08-01T11:27:28;7.55;;;2.80;;
36233;SDS011;43467;50.890;5.982;2023-08-01T11:29:54;5.93;;;2.33;;
36233;SDS011;43467;50.890;5.982;2023-08-01T11:32:21;5.55;;;2.40;;
36233;SDS011;43467;50.890;5.982;2023-08-01T11:34:57;8.07;;;2.67;;
36233;SDS011;43467;50.890;5.982;2023-08-01T11:37:25;6.57;;;2.63;;
36233;SDS011;43467;50.890;5.982;2023-08-01T11:39:52;12.98;;;3.00;;
36233;SDS011;43467;50.890;5.982;2023-08-01T11:42:18;9.90;;;3.33;;
36233;SDS011;43467;50.890;5.982;2023-08-01T11:44:44;4.85;;;2.53;;
36233;SDS011;43467;50.890;5.982;2023-08-01T11:47:11;9.85;;;2.70;;
36233;SDS011;43467;50.890;5.982;2023-08-01T11:49:50;8.40;;;3.03;;
36233;SDS011;43467;50.890;5.982;2023-08-01T11:52:25;6.50;;;2.72;;
36233;SDS011;43467;50.890;5.982;2023-08-01T11:54:52;4.93;;;2.72;;
36233;SDS011;43467;50.890;5.982;2023-08-01T11:57:22;7.70;;;2.78;;
36233;SDS011;43467;50.890;5.982;2023-08-01T11:59:49;8.43;;;2.85;;
36233;SDS011;43467;50.890;5.982;2023-08-01T12:02:26;9.00;;;2.58;;
36233;SDS011;43467;50.890;5.982;2023-08-01T12:04:54;10.48;;;3.38;;
36233;SDS011;43467;50.890;5.982;2023-08-01T12:07:20;9.63;;;3.33;;
36233;SDS011;43467;50.890;5.982;2023-08-01T12:09:56;6.35;;;2.58;;
36233;SDS011;43467;50.890;5.982;2023-08-01T12:12:23;7.53;;;2.88;;
36233;SDS011;43467;50.890;5.982;2023-08-01T12:14:49;5.70;;;2.75;;
36233;SDS011;43467;50.890;5.982;2023-08-01T12:17:15;8.48;;;2.83;;
36233;SDS011;43467;50.890;5.982;2023-08-01T12:19:40;10.85;;;2.40;;
36233;SDS011;43467;50.890;5.982;2023-08-01T12:22:06;6.45;;;2.90;;
36233;SDS011;43467;50.890;5.982;2023-08-01T12:24:32;5.63;;;2.53;;
36233;SDS011;43467;50.890;5.982;2023-08-01T12:26:58;5.25;;;2.05;;
36233;SDS011;43467;50.890;5.982;2023-08-01T12:29:24;4.22;;;2.03;;
36233;SDS011;43467;50.890;5.982;2023-08-01T12:31:50;6.13;;;2.40;;
36233;SDS011;43467;50.890;5.982;2023-08-01T12:34:16;5.13;;;2.33;;
36233;SDS011;43467;50.890;5.982;2023-08-01T12:36:41;8.10;;;2.50;;
36233;SDS011;43467;50.890;5.982;2023-08-01T12:39:07;8.98;;;2.50;;
36233;SDS011;43467;50.890;5.982;2023-08-01T12:41:36;10.55;;;2.60;;
36233;SDS011;43467;50.890;5.982;2023-08-01T12:44:03;6.05;;;2.50;;
36233;SDS011;43467;50.890;5.982;2023-08-01T12:46:29;5.40;;;2.80;;
36233;SDS011;43467;50.890;5.982;2023-08-01T12:48:54;8.02;;;2.65;;
36233;SDS011;43467;50.890;5.982;2023-08-01T12:51:20;5.20;;;2.25;;
36233;SDS011;43467;50.890;5.982;2023-08-01T12:53:45;6.47;;;2.92;;
36233;SDS011;43467;50.890;5.982;2023-08-01T12:56:11;11.00;;;3.33;;
36233;SDS011;43467;50.890;5.982;2023-08-01T12:58:37;9.70;;;3.30;;
36233;SDS011;43467;50.890;5.982;2023-08-01T13:01:03;5.38;;;2.63;;
36233;SDS011;43467;50.890;5.982;2023-08-01T13:03:29;5.93;;;2.58;;
36233;SDS011;43467;50.890;5.982;2023-08-01T13:05:54;6.22;;;2.83;;
36233;SDS011;43467;50.890;5.982;2023-08-01T13:08:22;7.85;;;2.78;;
36233;SDS011;43467;50.890;5.982;2023-08-01T13:10:48;6.28;;;2.60;;
36233;SDS011;43467;50.890;5.982;2023-08-01T13:13:15;6.88;;;3.35;;
36233;SDS011;43467;50.890;5.982;2023-08-01T13:15:41;10.02;;;3.60;;
36233;SDS011;43467;50.890;5.982;2023-08-01T13:18:07;8.23;;;3.10;;
36233;SDS011;43467;50.890;5.982;2023-08-01T13:20:32;9.02;;;3.35;;
36233;SDS011;43467;50.890;5.982;2023-08-01T13:22:58;8.20;;;3.15;;
36233;SDS011;43467;50.890;5.982;2023-08-01T13:25:24;5.10;;;2.83;;
36233;SDS011;43467;50.890;5.982;2023-08-01T13:27:49;9.73;;;2.70;;
36233;SDS011;43467;50.890;5.982;2023-08-01T13:30:17;12.10;;;3.22;;
36233;SDS011;43467;50.890;5.982;2023-08-01T13:32:44;6.72;;;2.65;;
36233;SDS011;43467;50.890;5.982;2023-08-01T13:35:10;11.18;;;3.08;;
36233;SDS011;43467;50.890;5.982;2023-08-01T13:37:36;5.95;;;2.33;;
36233;SDS011;43467;50.890;5.982;2023-08-01T13:40:02;9.63;;;2.65;;
36233;SDS011;43467;50.890;5.982;2023-08-01T13:42:28;6.13;;;2.25;;
36233;SDS011;43467;50.890;5.982;2023-08-01T13:44:54;5.18;;;2.72;;
36233;SDS011;43467;50.890;5.982;2023-08-01T13:47:20;13.90;;;3.55;;
36233;SDS011;43467;50.890;5.982;2023-08-01T13:49:46;7.13;;;2.53;;
36233;SDS011;43467;50.890;5.982;2023-08-01T13:52:11;7.10;;;2.33;;
36233;SDS011;43467;50.890;5.982;2023-08-01T13:54:37;7.50;;;2.45;;
36233;SDS011;43467;50.890;5.982;2023-08-01T13:57:03;9.73;;;2.55;;
36233;SDS011;43467;50.890;5.982;2023-08-01T13:59:28;6.82;;;2.53;;
36233;SDS011;43467;50.890;5.982;2023-08-01T14:01:54;6.45;;;2.50;;
36233;SDS011;43467;50.890;5.982;2023-08-01T14:04:20;7.90;;;2.25;;
36233;SDS011;43467;50.890;5.982;2023-08-01T14:06:46;6.90;;;2.45;;
36233;SDS011;43467;50.890;5.982;2023-08-01T14:09:12;7.22;;;2.22;;
36233;SDS011;43467;50.890;5.982;2023-08-01T14:11:38;8.27;;;2.88;;
36233;SDS011;43467;50.890;5.982;2023-08-01T14:14:04;5.95;;;2.63;;
36233;SDS011;43467;50.890;5.982;2023-08-01T14:16:30;10.75;;;3.03;;
36233;SDS011;43467;50.890;5.982;2023-08-01T14:18:56;8.60;;;2.97;;
36233;SDS011;43467;50.890;5.982;2023-08-01T14:21:22;6.95;;;2.70;;
36233;SDS011;43467;50.890;5.982;2023-08-01T14:23:48;5.10;;;2.05;;
36233;SDS011;43467;50.890;5.982;2023-08-01T14:26:14;8.50;;;2.90;;
36233;SDS011;43467;50.890;5.982;2023-08-01T14:28:39;7.88;;;3.05;;
36233;SDS011;43467;50.890;5.982;2023-08-01T14:31:05;5.55;;;2.65;;
36233;SDS011;43467;50.890;5.982;2023-08-01T14:33:32;9.32;;;2.67;;
36233;SDS011;43467;50.890;5.982;2023-08-01T14:35:58;6.60;;;2.40;;
36233;SDS011;43467;50.890;5.982;2023-08-01T14:38:23;10.88;;;2.47;;
36233;SDS011;43467;50.890;5.982;2023-08-01T14:40:49;6.82;;;2.35;;